createdAt,value
2018-06-10T00:00:23.363Z,92.20
2018-06-10T00:02:51.848Z,92.20
2018-06-10T00:05:20.353Z,91.90
2018-06-10T00:07:48.878Z,92.30
2018-06-10T00:10:17.407Z,92.30
2018-06-10T00:12:45.930Z,92.20
2018-06-10T00:15:14.454Z,92.20
2018-06-10T00:17:42.997Z,92.00
2018-06-10T00:20:11.517Z,92.30
2018-06-10T00:22:40.062Z,92.60
2018-06-10T00:25:08.562Z,93.10
2018-06-10T00:27:37.065Z,92.90
2018-06-10T00:30:05.600Z,92.80
2018-06-10T00:32:34.126Z,93.20
2018-06-10T00:35:02.630Z,93.50
2018-06-10T00:37:31.117Z,93.70
2018-06-10T00:39:59.625Z,93.40
2018-06-10T00:42:28.122Z,93.20
2018-06-10T00:44:56.733Z,93.10
2018-06-10T00:47:25.234Z,93.30
2018-06-10T00:49:53.747Z,93.20
2018-06-10T00:52:22.262Z,93.30
2018-06-10T00:54:50.734Z,93.70
2018-06-10T00:57:19.341Z,93.40
2018-06-10T00:59:47.910Z,93.20
2018-06-10T01:02:16.419Z,93.80
2018-06-10T01:04:44.933Z,93.40
2018-06-10T01:07:13.462Z,93.40
2018-06-10T01:09:41.970Z,93.60
2018-06-10T01:12:10.449Z,93.50
2018-06-10T01:14:38.929Z,93.70
2018-06-10T01:17:07.438Z,93.60
2018-06-10T01:19:37.178Z,93.60
2018-06-10T01:22:05.694Z,94.00
2018-06-10T01:24:34.186Z,93.40
2018-06-10T01:27:02.672Z,93.80
2018-06-10T01:29:31.203Z,93.90
2018-06-10T01:31:59.754Z,94.10
2018-06-10T01:34:28.273Z,94.00
2018-06-10T01:36:56.797Z,94.00
2018-06-10T01:39:25.296Z,94.10
2018-06-10T01:41:53.833Z,93.90
2018-06-10T01:44:22.314Z,93.60
2018-06-10T01:46:50.822Z,93.80
2018-06-10T01:49:19.318Z,94.50
2018-06-10T01:51:47.801Z,94.50
2018-06-10T01:54:16.318Z,94.70
2018-06-10T01:56:44.798Z,94.80
2018-06-10T01:59:13.327Z,94.30
2018-06-10T02:01:41.834Z,93.90
2018-06-10T02:04:10.337Z,94.80
2018-06-10T02:06:38.915Z,94.60
2018-06-10T02:09:07.466Z,94.80
2018-06-10T02:11:35.972Z,94.80
2018-06-10T02:14:04.516Z,94.50
2018-06-10T02:16:33.011Z,94.70
2018-06-10T02:19:01.512Z,94.20
2018-06-10T02:21:29.993Z,93.90
2018-06-10T02:23:58.532Z,94.10
2018-06-10T02:26:27.044Z,94.70
2018-06-10T02:28:55.597Z,94.70
2018-06-10T02:31:24.114Z,94.50
2018-06-10T02:33:52.606Z,94.70
2018-06-10T02:36:21.092Z,94.50
2018-06-10T02:38:49.605Z,94.30
2018-06-10T02:41:18.130Z,94.20
2018-06-10T02:43:46.664Z,94.20
2018-06-10T02:46:15.136Z,93.90
2018-06-10T02:48:43.659Z,93.90
2018-06-10T02:51:12.153Z,94.00
2018-06-10T02:53:40.714Z,94.20
2018-06-10T02:56:09.200Z,94.20
2018-06-10T02:58:37.698Z,93.70
2018-06-10T03:01:06.234Z,94.70
2018-06-10T03:03:34.758Z,94.10
2018-06-10T03:06:03.341Z,93.90
2018-06-10T03:08:31.828Z,93.80
2018-06-10T03:11:00.305Z,93.90
2018-06-10T03:13:28.803Z,94.80
2018-06-10T03:15:57.333Z,94.50
2018-06-10T03:18:25.836Z,94.40
2018-06-10T03:20:54.343Z,94.30
2018-06-10T03:23:22.909Z,94.70
2018-06-10T03:25:51.405Z,94.50
2018-06-10T03:28:19.918Z,94.30
2018-06-10T03:30:48.410Z,94.80
2018-06-10T03:33:16.914Z,95.00
2018-06-10T03:35:45.408Z,94.90
2018-06-10T03:38:13.909Z,94.90
2018-06-10T03:40:42.430Z,94.90
2018-06-10T03:43:10.913Z,95.00
2018-06-10T03:45:39.463Z,95.00
2018-06-10T03:48:08.025Z,94.90
2018-06-10T03:50:36.524Z,95.40
2018-06-10T03:53:05.036Z,96.20
2018-06-10T03:55:33.542Z,96.30
2018-06-10T03:58:02.097Z,96.20
2018-06-10T04:00:30.610Z,95.80
2018-06-10T04:02:59.114Z,95.80
2018-06-10T04:05:27.622Z,95.90
2018-06-10T04:07:56.176Z,96.10
2018-06-10T04:10:24.681Z,95.60
2018-06-10T04:12:53.211Z,95.40
2018-06-10T04:15:21.718Z,95.30
2018-06-10T04:17:50.188Z,95.20
2018-06-10T04:20:18.738Z,95.30
2018-06-10T04:22:47.250Z,95.20
2018-06-10T04:25:15.788Z,95.50
2018-06-10T04:27:44.278Z,95.00
2018-06-10T04:30:12.822Z,94.80
2018-06-10T04:32:41.326Z,95.00
2018-06-10T04:35:09.838Z,95.00
2018-06-10T04:37:38.369Z,94.90
2018-06-10T04:40:06.890Z,95.00
2018-06-10T04:42:35.385Z,95.00
2018-06-10T04:45:03.994Z,95.00
2018-06-10T04:47:32.518Z,95.00
2018-06-10T04:50:01.017Z,95.10
2018-06-10T04:52:29.518Z,95.20
2018-06-10T04:54:58.006Z,95.10
2018-06-10T04:57:26.507Z,95.00
2018-06-10T04:59:55.048Z,94.90
2018-06-10T05:02:23.540Z,94.90
2018-06-10T05:04:52.041Z,94.90
2018-06-10T05:07:20.557Z,94.50
2018-06-10T05:09:49.058Z,94.10
2018-06-10T05:12:17.539Z,93.70
2018-06-10T05:14:46.072Z,93.50
2018-06-10T05:17:14.563Z,93.70
2018-06-10T05:19:43.093Z,93.80
2018-06-10T05:22:11.612Z,94.00
2018-06-10T05:24:40.118Z,93.80
2018-06-10T05:27:08.666Z,93.20
2018-06-10T05:29:37.173Z,92.60
2018-06-10T05:32:05.746Z,92.70
2018-06-10T05:34:34.250Z,92.10
2018-06-10T05:37:02.750Z,92.60
2018-06-10T05:39:31.258Z,93.30
2018-06-10T05:41:59.826Z,93.00
2018-06-10T05:44:28.342Z,92.70
2018-06-10T05:46:56.866Z,93.30
2018-06-10T05:49:25.359Z,93.10
2018-06-10T05:51:53.882Z,93.10
2018-06-10T05:54:22.397Z,93.10
2018-06-10T05:56:50.950Z,93.20
2018-06-10T05:59:19.524Z,93.30
2018-06-10T06:01:48.072Z,93.50
2018-06-10T06:04:16.630Z,93.30
2018-06-10T06:06:45.206Z,92.60
2018-06-10T06:09:13.704Z,92.20
2018-06-10T06:11:42.214Z,91.90
2018-06-10T06:14:10.712Z,90.90
2018-06-10T06:16:39.210Z,88.20
2018-06-10T06:19:07.737Z,87.90
2018-06-10T06:21:36.241Z,87.00
2018-06-10T06:24:04.816Z,85.40
2018-06-10T06:26:33.328Z,84.80
2018-06-10T06:29:01.857Z,83.90
2018-06-10T06:31:30.369Z,83.60
2018-06-10T06:33:58.878Z,84.60
2018-06-10T06:36:27.480Z,83.00
2018-06-10T06:38:56.028Z,82.60
2018-06-10T06:41:24.559Z,82.30
2018-06-10T06:43:53.139Z,82.70
2018-06-10T06:46:21.680Z,82.90
2018-06-10T06:48:50.215Z,83.20
2018-06-10T06:51:18.755Z,82.30
2018-06-10T06:53:47.334Z,81.70
2018-06-10T06:56:15.854Z,82.50
2018-06-10T06:58:44.375Z,81.10
2018-06-10T07:01:12.917Z,82.10
2018-06-10T07:03:41.425Z,81.80
2018-06-10T07:06:09.930Z,81.60
2018-06-10T07:08:38.466Z,81.90
2018-06-10T07:11:06.985Z,81.50
2018-06-10T07:13:35.682Z,81.50
2018-06-10T07:16:04.353Z,80.70
2018-06-10T07:18:32.931Z,80.20
2018-06-10T07:21:01.435Z,79.00
2018-06-10T07:23:29.963Z,76.80
2018-06-10T07:25:58.452Z,77.10
2018-06-10T07:28:26.974Z,75.00
2018-06-10T07:30:55.505Z,72.40
2018-06-10T07:33:24.106Z,73.10
2018-06-10T07:35:52.598Z,71.20
2018-06-10T07:38:21.109Z,72.50
2018-06-10T07:40:49.662Z,71.60
2018-06-10T07:43:18.194Z,69.90
2018-06-10T07:45:46.791Z,69.50
2018-06-10T07:48:15.401Z,69.40
2018-06-10T07:50:43.924Z,68.60
2018-06-10T07:53:12.483Z,68.50
2018-06-10T07:55:40.966Z,66.50
2018-06-10T07:58:09.548Z,67.40
2018-06-10T08:00:38.106Z,66.60
2018-06-10T08:03:06.645Z,64.80
2018-06-10T08:05:35.214Z,65.60
2018-06-10T08:08:03.732Z,66.70
2018-06-10T08:10:32.261Z,67.30
2018-06-10T08:13:00.788Z,65.20
2018-06-10T08:15:29.312Z,64.00
2018-06-10T08:17:57.837Z,62.30
2018-06-10T08:20:26.370Z,64.60
2018-06-10T08:22:54.920Z,63.80
2018-06-10T08:25:23.454Z,63.20
2018-06-10T08:27:51.973Z,64.20
2018-06-10T08:30:20.515Z,63.60
2018-06-10T08:32:48.996Z,63.50
2018-06-10T08:35:17.541Z,64.20
2018-06-10T08:37:46.049Z,62.70
2018-06-10T08:40:14.554Z,61.90
2018-06-10T08:42:43.193Z,60.60
2018-06-10T08:45:11.718Z,62.00
2018-06-10T08:47:40.280Z,61.80
2018-06-10T08:50:08.854Z,61.20
2018-06-10T08:52:37.361Z,60.90
2018-06-10T08:55:05.858Z,59.30
2018-06-10T08:57:34.351Z,58.10
2018-06-10T09:00:02.938Z,58.70
2018-06-10T09:02:31.462Z,57.90
2018-06-10T09:04:59.969Z,56.80
2018-06-10T09:07:28.566Z,56.20
2018-06-10T09:09:57.091Z,57.10
2018-06-10T09:12:25.566Z,57.50
2018-06-10T09:14:54.127Z,57.00
2018-06-10T09:17:22.607Z,58.50
2018-06-10T09:19:51.147Z,57.90
2018-06-10T09:22:19.712Z,57.60
2018-06-10T09:24:48.180Z,57.80
2018-06-10T09:27:16.655Z,55.20
2018-06-10T09:29:45.161Z,53.20
2018-06-10T09:32:13.674Z,53.00
2018-06-10T09:34:42.194Z,52.00
2018-06-10T09:37:10.682Z,55.20
2018-06-10T09:39:39.216Z,55.40
2018-06-10T09:42:07.746Z,56.10
2018-06-10T09:44:36.276Z,53.60
2018-06-10T09:47:04.848Z,53.10
2018-06-10T09:49:33.370Z,54.10
2018-06-10T09:52:01.860Z,54.30
2018-06-10T09:54:30.346Z,52.70
2018-06-10T09:56:58.842Z,53.40
2018-06-10T09:59:27.347Z,53.80
2018-06-10T10:01:55.946Z,53.70
2018-06-10T10:04:24.454Z,53.60
2018-06-10T10:06:52.994Z,54.70
2018-06-10T10:09:21.682Z,55.40
2018-06-10T10:11:50.168Z,56.00
2018-06-10T10:14:18.702Z,57.10
2018-06-10T10:16:47.190Z,56.80
2018-06-10T10:19:15.690Z,57.90
2018-06-10T10:21:44.213Z,59.10
2018-06-10T10:24:12.718Z,59.60
2018-06-10T10:26:41.205Z,59.70
2018-06-10T10:29:09.705Z,60.40
2018-06-10T10:31:38.221Z,61.40
2018-06-10T10:34:06.730Z,60.60
2018-06-10T10:36:35.222Z,60.80
2018-06-10T10:39:05.588Z,60.70
2018-06-10T10:44:02.275Z,62.00
2018-06-10T10:46:30.827Z,61.80
2018-06-10T10:48:59.485Z,62.30
2018-06-10T10:51:28.012Z,63.40
2018-06-10T10:53:56.555Z,63.80
2018-06-10T10:56:25.766Z,63.60
2018-06-10T10:58:55.408Z,63.80
2018-06-10T11:01:23.907Z,64.60
2018-06-10T11:03:52.418Z,63.70
2018-06-10T11:06:20.910Z,63.30
2018-06-10T11:08:49.439Z,63.10
2018-06-10T11:11:17.957Z,62.50
2018-06-10T11:13:46.422Z,62.80
2018-06-10T11:16:14.938Z,62.70
2018-06-10T11:18:43.442Z,61.70
2018-06-10T11:21:12.026Z,59.20
2018-06-10T11:23:40.505Z,62.70
2018-06-10T11:26:09.014Z,63.30
2018-06-10T11:28:37.524Z,64.00
2018-06-10T11:31:06.071Z,63.80
2018-06-10T11:33:34.570Z,63.50
2018-06-10T11:36:03.133Z,63.70
2018-06-10T11:38:32.667Z,65.20
2018-06-10T11:41:01.153Z,64.90
2018-06-10T11:43:29.934Z,64.80
2018-06-10T11:45:58.435Z,65.00
2018-06-10T11:48:27.010Z,65.40
2018-06-10T11:50:55.536Z,65.80
2018-06-10T11:53:25.309Z,66.60
2018-06-10T11:55:53.841Z,66.60
2018-06-10T11:58:22.425Z,65.80
2018-06-10T12:00:51.073Z,66.40
2018-06-10T12:03:19.834Z,67.30
2018-06-10T12:05:48.436Z,68.40
2018-06-10T12:08:16.950Z,68.10
2018-06-10T12:10:45.486Z,67.50
2018-06-10T12:13:14.006Z,66.30
2018-06-10T12:15:42.590Z,66.20
2018-06-10T12:18:11.109Z,65.90
2018-06-10T12:20:39.618Z,67.10
2018-06-10T12:23:08.163Z,66.20
2018-06-10T12:25:36.705Z,66.50
2018-06-10T12:28:05.458Z,66.90
2018-06-10T12:30:34.054Z,67.20
2018-06-10T12:33:02.585Z,68.20
2018-06-10T12:35:31.809Z,69.00
2018-06-10T12:38:00.306Z,69.90
2018-06-10T12:40:28.788Z,70.60
2018-06-10T12:42:57.353Z,71.00
2018-06-10T12:45:25.846Z,71.00
2018-06-10T12:47:54.347Z,72.00
2018-06-10T12:50:22.874Z,71.70
2018-06-10T12:52:51.454Z,71.20
2018-06-10T12:55:19.977Z,71.30
2018-06-10T12:57:48.485Z,70.80
2018-06-10T13:00:17.004Z,71.10
2018-06-10T13:02:45.481Z,72.30
2018-06-10T13:05:13.980Z,72.30
2018-06-10T13:07:42.525Z,72.50
2018-06-10T13:10:11.183Z,72.80
2018-06-10T13:12:40.161Z,73.00
2018-06-10T13:15:08.710Z,73.80
2018-06-10T13:17:37.225Z,74.80
2018-06-10T13:20:05.734Z,75.40
2018-06-10T13:22:34.234Z,75.70
2018-06-10T13:25:02.751Z,76.20
2018-06-10T13:27:31.294Z,76.10
2018-06-10T13:29:59.750Z,76.90
2018-06-10T13:32:28.324Z,77.70
2018-06-10T13:34:56.853Z,77.10
2018-06-10T13:37:25.356Z,77.40
2018-06-10T13:39:53.855Z,78.10
2018-06-10T13:42:22.365Z,78.50
2018-06-10T13:44:50.902Z,78.80
2018-06-10T13:47:19.636Z,79.20
2018-06-10T13:49:48.146Z,80.30
2018-06-10T13:52:16.682Z,81.00
2018-06-10T13:54:45.286Z,81.90
2018-06-10T13:57:13.789Z,82.90
2018-06-10T13:59:42.350Z,84.10
2018-06-10T14:02:10.856Z,85.30
2018-06-10T14:04:39.439Z,85.50
2018-06-10T14:07:08.041Z,86.40
2018-06-10T14:09:36.755Z,87.00
2018-06-10T14:12:05.958Z,87.50
2018-06-10T14:14:35.342Z,87.70
2018-06-10T14:17:04.530Z,88.00
2018-06-10T14:19:33.146Z,88.20
2018-06-10T14:22:01.786Z,88.70
2018-06-10T14:24:30.691Z,88.60
2018-06-10T14:26:59.553Z,88.60
2018-06-10T14:29:28.692Z,88.70
2018-06-10T14:32:01.605Z,88.30
2018-06-10T14:34:31.485Z,88.50
2018-06-10T14:37:00.497Z,88.00
2018-06-10T14:39:29.045Z,88.30
2018-06-10T14:41:57.588Z,88.10
2018-06-10T14:44:26.162Z,88.30
2018-06-10T14:46:54.743Z,88.30
2018-06-10T14:49:23.250Z,88.70
2018-06-10T14:51:51.961Z,88.60
2018-06-10T14:54:20.862Z,88.10
2018-06-10T14:56:50.210Z,88.90
2018-06-10T14:59:18.871Z,89.70
2018-06-10T15:01:47.774Z,90.70
2018-06-10T15:04:16.287Z,90.30
2018-06-10T15:06:44.970Z,89.90
2018-06-10T15:09:13.522Z,90.60
2018-06-10T15:11:42.103Z,90.20
2018-06-10T15:14:10.627Z,90.80
2018-06-10T15:16:39.134Z,90.80
2018-06-10T15:19:07.292Z,91.20
2018-06-10T15:21:35.855Z,91.40
2018-06-10T15:26:32.872Z,90.50
2018-06-10T15:29:01.408Z,90.60
2018-06-10T15:31:29.991Z,91.60
2018-06-10T15:33:58.539Z,91.00
2018-06-10T15:36:27.218Z,91.00
2018-06-10T15:38:55.751Z,89.00
2018-06-10T15:41:24.251Z,88.30
2018-06-10T15:43:52.834Z,87.30
2018-06-10T15:46:21.389Z,87.60
2018-06-10T15:48:50.027Z,87.30
2018-06-10T15:51:18.573Z,87.40
2018-06-10T15:53:47.100Z,87.90
2018-06-10T15:56:15.637Z,87.20
2018-06-10T15:58:44.145Z,87.10
2018-06-10T16:01:12.660Z,85.40
2018-06-10T16:03:41.215Z,85.90
2018-06-10T16:06:09.784Z,85.70
2018-06-10T16:08:38.385Z,86.40
2018-06-10T16:11:06.936Z,85.20
2018-06-10T16:13:35.442Z,85.60
2018-06-10T16:16:03.982Z,86.40
2018-06-10T16:18:32.495Z,85.70
2018-06-10T16:21:01.014Z,86.50
2018-06-10T16:23:29.530Z,87.30
2018-06-10T16:25:58.067Z,86.50
2018-06-10T16:28:26.568Z,86.60
2018-06-10T16:30:55.060Z,86.70
2018-06-10T16:33:23.590Z,87.30
2018-06-10T16:35:52.110Z,87.80
2018-06-10T16:38:20.678Z,87.90
2018-06-10T16:40:49.214Z,87.70
2018-06-10T16:43:19.508Z,87.90
2018-06-10T16:45:48.611Z,88.70
2018-06-10T16:48:17.121Z,88.10
2018-06-10T16:50:45.630Z,87.70
2018-06-10T16:53:14.131Z,88.20
2018-06-10T16:55:42.646Z,87.90
2018-06-10T16:58:11.202Z,88.00
2018-06-10T17:00:39.788Z,87.40
2018-06-10T17:03:08.317Z,87.70
2018-06-10T17:05:36.952Z,87.10
2018-06-10T17:08:05.477Z,87.00
2018-06-10T17:10:33.995Z,86.90
2018-06-10T17:13:02.687Z,86.90
2018-06-10T17:15:31.893Z,87.50
2018-06-10T17:18:00.491Z,87.90
2018-06-10T17:20:29.152Z,88.60
2018-06-10T17:22:57.638Z,88.70
2018-06-10T17:25:26.217Z,88.50
2018-06-10T17:27:54.732Z,88.50
2018-06-10T17:30:23.306Z,88.80
2018-06-10T17:32:51.883Z,89.40
2018-06-10T17:35:20.422Z,89.50
2018-06-10T17:37:48.956Z,89.50
2018-06-10T17:40:17.487Z,89.30
2018-06-10T17:42:46.046Z,88.90
2018-06-10T17:45:14.643Z,89.20
2018-06-10T17:47:43.160Z,89.00
2018-06-10T17:50:11.701Z,90.20
2018-06-10T17:52:40.237Z,90.20
2018-06-10T17:55:08.730Z,90.50
2018-06-10T17:57:37.230Z,89.30
2018-06-10T18:00:05.750Z,89.30
2018-06-10T18:02:34.242Z,89.80
2018-06-10T18:05:02.772Z,90.00
2018-06-10T18:07:31.290Z,89.60
2018-06-10T18:09:59.874Z,89.10
2018-06-10T18:12:28.381Z,89.60
2018-06-10T18:14:56.994Z,89.80
2018-06-10T18:17:25.522Z,90.70
2018-06-10T18:19:54.419Z,90.80
2018-06-10T18:22:22.953Z,90.80
2018-06-10T18:24:51.486Z,91.10
2018-06-10T18:27:19.991Z,91.20
2018-06-10T18:29:48.583Z,91.00
2018-06-10T18:32:17.154Z,90.50
2018-06-10T18:34:45.648Z,90.70
2018-06-10T18:37:14.178Z,91.00
2018-06-10T18:39:42.672Z,90.90
2018-06-10T18:42:11.211Z,90.60
2018-06-10T18:44:39.778Z,90.90
2018-06-10T18:47:08.934Z,91.20
2018-06-10T18:49:37.466Z,91.90
2018-06-10T18:52:06.008Z,92.00
2018-06-10T18:54:34.503Z,90.90
2018-06-10T18:57:03.638Z,90.90
2018-06-10T18:59:32.201Z,90.90
2018-06-10T19:02:00.778Z,91.00
2018-06-10T19:04:29.583Z,91.10
2018-06-10T19:06:58.143Z,91.10
2018-06-10T19:09:26.728Z,91.10
2018-06-10T19:11:55.343Z,91.20
2018-06-10T19:14:24.214Z,91.20
2018-06-10T19:16:52.797Z,91.20
2018-06-10T19:19:21.332Z,91.80
2018-06-10T19:21:49.837Z,91.50
2018-06-10T19:24:18.344Z,91.40
2018-06-10T19:26:47.403Z,91.70
2018-06-10T19:29:15.947Z,91.50
2018-06-10T19:31:45.273Z,91.70
2018-06-10T19:34:14.441Z,92.10
2018-06-10T19:36:42.954Z,92.50
2018-06-10T19:39:11.484Z,93.30
2018-06-10T19:41:40.011Z,93.50
2018-06-10T19:44:08.527Z,93.90
2018-06-10T19:46:37.036Z,94.50
2018-06-10T19:49:05.624Z,94.80
2018-06-10T19:51:34.129Z,93.80
2018-06-10T19:54:02.613Z,93.90
2018-06-10T19:56:31.125Z,93.40
2018-06-10T19:58:59.641Z,93.60
2018-06-10T20:01:29.072Z,93.30
2018-06-10T20:03:57.588Z,93.20
2018-06-10T20:06:26.493Z,93.60
2018-06-10T20:08:55.007Z,94.10
2018-06-10T20:11:23.535Z,94.90
2018-06-10T20:13:52.064Z,95.30
2018-06-10T20:16:20.623Z,95.30
2018-06-10T20:18:50.157Z,96.20
2018-06-10T20:21:18.681Z,97.00
2018-06-10T20:23:47.209Z,97.50
2018-06-10T20:26:15.717Z,97.80
2018-06-10T20:28:44.247Z,98.00
2018-06-10T20:31:12.773Z,98.10
2018-06-10T20:33:41.269Z,98.00
2018-06-10T20:36:09.807Z,97.70
2018-06-10T20:38:38.320Z,97.60
2018-06-10T20:41:06.986Z,97.40
2018-06-10T20:43:35.473Z,97.50
2018-06-10T20:46:04.013Z,98.40
2018-06-10T20:48:32.593Z,98.10
2018-06-10T20:51:01.115Z,98.20
2018-06-10T20:53:29.623Z,98.40
2018-06-10T20:55:58.132Z,98.40
2018-06-10T20:58:26.663Z,98.60
2018-06-10T21:00:55.188Z,98.80
2018-06-10T21:03:23.711Z,98.80
2018-06-10T21:05:52.233Z,99.10
2018-06-10T21:08:20.762Z,99.10
2018-06-10T21:10:49.396Z,99.20
2018-06-10T21:13:17.943Z,98.80
2018-06-10T21:15:46.458Z,99.10
2018-06-10T21:18:14.981Z,99.30
2018-06-10T21:20:43.493Z,99.40
2018-06-10T21:23:12.040Z,99.20
2018-06-10T21:25:40.581Z,99.20
2018-06-10T21:28:09.322Z,99.30
2018-06-10T21:30:37.839Z,99.30
2018-06-10T21:33:06.347Z,99.40
2018-06-10T21:35:34.849Z,99.80
2018-06-10T21:38:03.383Z,99.80
2018-06-10T21:40:31.910Z,99.90
2018-06-10T21:43:00.405Z,99.90
2018-06-10T21:45:28.899Z,99.90
2018-06-10T21:47:57.422Z,99.90
2018-06-10T21:50:26.011Z,99.90
2018-06-10T21:52:54.532Z,99.90
2018-06-10T21:55:23.055Z,99.90
2018-06-10T21:57:51.559Z,99.90
2018-06-10T22:00:24.838Z,99.90
2018-06-10T22:02:53.427Z,99.90
2018-06-10T22:05:22.200Z,99.90
2018-06-10T22:07:50.717Z,99.90
2018-06-10T22:10:19.238Z,99.90
2018-06-10T22:12:47.745Z,99.90
2018-06-10T22:15:16.289Z,99.90
2018-06-10T22:17:44.851Z,99.90
2018-06-10T22:20:13.366Z,99.80
2018-06-10T22:22:41.861Z,99.90
2018-06-10T22:25:10.381Z,99.80
2018-06-10T22:27:38.914Z,99.80
2018-06-10T22:30:07.429Z,99.90
2018-06-10T22:32:36.001Z,99.90
2018-06-10T22:35:04.509Z,99.50
2018-06-10T22:37:33.022Z,99.60
2018-06-10T22:40:01.527Z,99.60
2018-06-10T22:42:30.045Z,99.40
2018-06-10T22:44:58.579Z,99.50
2018-06-10T22:47:27.083Z,99.40
2018-06-10T22:49:55.653Z,99.40
2018-06-10T22:52:24.210Z,99.70
2018-06-10T22:54:52.713Z,99.70
2018-06-10T22:57:21.242Z,99.40
2018-06-10T22:59:49.733Z,99.40
2018-06-10T23:02:18.266Z,99.50
2018-06-10T23:04:46.758Z,99.30
2018-06-10T23:07:15.347Z,99.30
2018-06-10T23:09:43.800Z,99.30
2018-06-10T23:12:12.342Z,99.30
2018-06-10T23:14:40.829Z,99.30
2018-06-10T23:17:09.332Z,98.90
2018-06-10T23:19:37.839Z,99.10
2018-06-10T23:22:06.343Z,98.70
2018-06-10T23:24:34.878Z,98.80
2018-06-10T23:27:03.372Z,98.80
2018-06-10T23:29:31.894Z,98.80
2018-06-10T23:32:00.410Z,99.20
2018-06-10T23:34:28.951Z,99.20
2018-06-10T23:36:57.444Z,99.10
2018-06-10T23:39:25.951Z,99.00
2018-06-10T23:41:54.502Z,99.00
2018-06-10T23:44:23.024Z,99.20
2018-06-10T23:46:51.563Z,99.30
2018-06-10T23:49:20.061Z,99.10
2018-06-10T23:51:49.031Z,99.20
2018-06-10T23:54:17.566Z,99.10
2018-06-10T23:56:46.097Z,99.20
2018-06-10T23:59:14.633Z,99.30
